sensor_id;sensor_type;location;lat;lon;timestamp;P1;durP1;ratioP1;P2;durP2;ratioP2
65187;SDS011;51775;51.148;6.950;2023-06-24T00:01:54;3.22;;;2.60;;
65187;SDS011;51775;51.148;6.950;2023-06-24T00:04:19;3.20;;;2.33;;
65187;SDS011;51775;51.148;6.950;2023-06-24T00:06:45;2.65;;;2.15;;
65187;SDS011;51775;51.148;6.950;2023-06-24T00:09:10;3.33;;;2.50;;
65187;SDS011;51775;51.148;6.950;2023-06-24T00:11:35;3.83;;;2.33;;
65187;SDS011;51775;51.148;6.950;2023-06-24T00:14:00;3.67;;;2.70;;
65187;SDS011;51775;51.148;6.950;2023-06-24T00:16:26;4.95;;;2.80;;
65187;SDS011;51775;51.148;6.950;2023-06-24T00:18:51;3.75;;;2.65;;
65187;SDS011;51775;51.148;6.950;2023-06-24T00:21:16;3.47;;;2.55;;
65187;SDS011;51775;51.148;6.950;2023-06-24T00:23:42;3.25;;;2.50;;
65187;SDS011;51775;51.148;6.950;2023-06-24T00:26:07;4.18;;;2.58;;
65187;SDS011;51775;51.148;6.950;2023-06-24T00:28:32;3.75;;;2.42;;
65187;SDS011;51775;51.148;6.950;2023-06-24T00:30:57;3.20;;;2.53;;
65187;SDS011;51775;51.148;6.950;2023-06-24T00:33:23;2.90;;;2.25;;
65187;SDS011;51775;51.148;6.950;2023-06-24T00:35:48;3.17;;;2.50;;
65187;SDS011;51775;51.148;6.950;2023-06-24T00:38:13;3.63;;;2.58;;
65187;SDS011;51775;51.148;6.950;2023-06-24T00:40:38;3.30;;;2.60;;
65187;SDS011;51775;51.148;6.950;2023-06-24T00:43:04;3.25;;;2.45;;
65187;SDS011;51775;51.148;6.950;2023-06-24T00:45:31;3.00;;;2.38;;
65187;SDS011;51775;51.148;6.950;2023-06-24T00:47:57;3.85;;;2.58;;
65187;SDS011;51775;51.148;6.950;2023-06-24T00:50:23;3.85;;;2.50;;
65187;SDS011;51775;51.148;6.950;2023-06-24T00:52:48;3.55;;;2.50;;
65187;SDS011;51775;51.148;6.950;2023-06-24T00:55:14;3.05;;;2.35;;
65187;SDS011;51775;51.148;6.950;2023-06-24T00:57:41;3.08;;;2.45;;
65187;SDS011;51775;51.148;6.950;2023-06-24T01:00:07;3.03;;;2.40;;
65187;SDS011;51775;51.148;6.950;2023-06-24T01:02:33;3.92;;;2.50;;
65187;SDS011;51775;51.148;6.950;2023-06-24T01:04:58;2.90;;;2.28;;
65187;SDS011;51775;51.148;6.950;2023-06-24T01:07:24;4.13;;;2.67;;
65187;SDS011;51775;51.148;6.950;2023-06-24T01:09:49;3.28;;;2.60;;
65187;SDS011;51775;51.148;6.950;2023-06-24T01:12:15;3.20;;;2.47;;
65187;SDS011;51775;51.148;6.950;2023-06-24T01:14:40;3.00;;;2.33;;
65187;SDS011;51775;51.148;6.950;2023-06-24T01:17:08;3.38;;;2.40;;
65187;SDS011;51775;51.148;6.950;2023-06-24T01:28:20;3.28;;;2.58;;
65187;SDS011;51775;51.148;6.950;2023-06-24T01:33:43;2.85;;;2.25;;
65187;SDS011;51775;51.148;6.950;2023-06-24T01:36:13;2.90;;;2.30;;
65187;SDS011;51775;51.148;6.950;2023-06-24T01:38:43;3.05;;;2.38;;
65187;SDS011;51775;51.148;6.950;2023-06-24T01:41:11;3.25;;;2.40;;
65187;SDS011;51775;51.148;6.950;2023-06-24T01:43:40;3.00;;;2.33;;
65187;SDS011;51775;51.148;6.950;2023-06-24T01:46:08;2.83;;;2.35;;
65187;SDS011;51775;51.148;6.950;2023-06-24T01:48:36;3.30;;;2.40;;
65187;SDS011;51775;51.148;6.950;2023-06-24T01:51:07;2.80;;;2.20;;
65187;SDS011;51775;51.148;6.950;2023-06-24T01:53:36;3.45;;;2.40;;
65187;SDS011;51775;51.148;6.950;2023-06-24T01:56:07;2.90;;;2.20;;
65187;SDS011;51775;51.148;6.950;2023-06-24T01:58:34;3.53;;;2.40;;
65187;SDS011;51775;51.148;6.950;2023-06-24T02:01:01;2.83;;;2.10;;
65187;SDS011;51775;51.148;6.950;2023-06-24T02:03:27;5.35;;;2.60;;
65187;SDS011;51775;51.148;6.950;2023-06-24T02:05:53;3.80;;;2.35;;
65187;SDS011;51775;51.148;6.950;2023-06-24T02:08:20;3.22;;;2.20;;
65187;SDS011;51775;51.148;6.950;2023-06-24T02:10:47;3.33;;;2.60;;
65187;SDS011;51775;51.148;6.950;2023-06-24T02:13:14;3.08;;;2.30;;
65187;SDS011;51775;51.148;6.950;2023-06-24T02:15:41;3.58;;;2.20;;
65187;SDS011;51775;51.148;6.950;2023-06-24T02:18:09;2.78;;;2.10;;
65187;SDS011;51775;51.148;6.950;2023-06-24T02:20:36;2.83;;;2.10;;
65187;SDS011;51775;51.148;6.950;2023-06-24T02:23:02;2.80;;;2.20;;
65187;SDS011;51775;51.148;6.950;2023-06-24T02:25:28;2.70;;;2.10;;
65187;SDS011;51775;51.148;6.950;2023-06-24T02:27:53;3.35;;;2.28;;
65187;SDS011;51775;51.148;6.950;2023-06-24T02:30:23;2.72;;;2.15;;
65187;SDS011;51775;51.148;6.950;2023-06-24T02:32:51;3.08;;;2.28;;
65187;SDS011;51775;51.148;6.950;2023-06-24T02:35:17;2.80;;;2.10;;
65187;SDS011;51775;51.148;6.950;2023-06-24T02:37:42;2.80;;;2.20;;
65187;SDS011;51775;51.148;6.950;2023-06-24T02:40:07;3.25;;;2.20;;
65187;SDS011;51775;51.148;6.950;2023-06-24T02:42:33;2.75;;;2.22;;
65187;SDS011;51775;51.148;6.950;2023-06-24T02:44:59;2.85;;;2.10;;
65187;SDS011;51775;51.148;6.950;2023-06-24T02:47:24;2.83;;;2.20;;
65187;SDS011;51775;51.148;6.950;2023-06-24T02:49:51;2.90;;;2.30;;
65187;SDS011;51775;51.148;6.950;2023-06-24T02:52:18;2.83;;;2.30;;
65187;SDS011;51775;51.148;6.950;2023-06-24T02:54:44;3.75;;;2.10;;
65187;SDS011;51775;51.148;6.950;2023-06-24T02:57:10;2.72;;;2.05;;
65187;SDS011;51775;51.148;6.950;2023-06-24T02:59:36;3.00;;;2.20;;
65187;SDS011;51775;51.148;6.950;2023-06-24T03:02:01;2.92;;;2.25;;
65187;SDS011;51775;51.148;6.950;2023-06-24T03:04:28;2.88;;;2.13;;
65187;SDS011;51775;51.148;6.950;2023-06-24T03:06:54;2.50;;;2.10;;
65187;SDS011;51775;51.148;6.950;2023-06-24T03:09:20;2.75;;;2.15;;
65187;SDS011;51775;51.148;6.950;2023-06-24T03:11:45;2.47;;;2.08;;
65187;SDS011;51775;51.148;6.950;2023-06-24T03:14:10;3.03;;;2.20;;
65187;SDS011;51775;51.148;6.950;2023-06-24T03:16:36;2.20;;;1.80;;
65187;SDS011;51775;51.148;6.950;2023-06-24T03:19:02;2.90;;;2.10;;
65187;SDS011;51775;51.148;6.950;2023-06-24T03:21:27;2.80;;;2.20;;
65187;SDS011;51775;51.148;6.950;2023-06-24T03:23:52;2.47;;;2.00;;
65187;SDS011;51775;51.148;6.950;2023-06-24T03:26:18;2.83;;;2.15;;
65187;SDS011;51775;51.148;6.950;2023-06-24T03:28:43;2.70;;;2.17;;
65187;SDS011;51775;51.148;6.950;2023-06-24T03:31:08;2.70;;;2.00;;
65187;SDS011;51775;51.148;6.950;2023-06-24T03:33:34;2.75;;;2.10;;
65187;SDS011;51775;51.148;6.950;2023-06-24T03:35:59;3.05;;;2.28;;
65187;SDS011;51775;51.148;6.950;2023-06-24T03:38:24;3.17;;;2.38;;
65187;SDS011;51775;51.148;6.950;2023-06-24T03:40:49;2.40;;;1.90;;
65187;SDS011;51775;51.148;6.950;2023-06-24T03:43:15;2.80;;;2.08;;
65187;SDS011;51775;51.148;6.950;2023-06-24T03:45:40;2.90;;;2.20;;
65187;SDS011;51775;51.148;6.950;2023-06-24T03:48:05;2.75;;;2.13;;
65187;SDS011;51775;51.148;6.950;2023-06-24T03:50:31;2.88;;;2.10;;
65187;SDS011;51775;51.148;6.950;2023-06-24T03:52:56;2.80;;;2.10;;
65187;SDS011;51775;51.148;6.950;2023-06-24T03:55:22;2.60;;;2.08;;
65187;SDS011;51775;51.148;6.950;2023-06-24T03:57:47;2.95;;;2.17;;
65187;SDS011;51775;51.148;6.950;2023-06-24T04:00:13;2.95;;;2.28;;
65187;SDS011;51775;51.148;6.950;2023-06-24T04:02:38;2.92;;;2.30;;
65187;SDS011;51775;51.148;6.950;2023-06-24T04:05:04;2.58;;;2.00;;
65187;SDS011;51775;51.148;6.950;2023-06-24T04:07:30;3.10;;;2.35;;
65187;SDS011;51775;51.148;6.950;2023-06-24T04:09:55;2.90;;;2.20;;
65187;SDS011;51775;51.148;6.950;2023-06-24T04:12:20;2.55;;;2.08;;
65187;SDS011;51775;51.148;6.950;2023-06-24T04:14:46;2.88;;;2.17;;
65187;SDS011;51775;51.148;6.950;2023-06-24T04:17:11;2.47;;;2.00;;
65187;SDS011;51775;51.148;6.950;2023-06-24T04:19:36;2.65;;;2.10;;
65187;SDS011;51775;51.148;6.950;2023-06-24T04:22:02;2.38;;;2.00;;
65187;SDS011;51775;51.148;6.950;2023-06-24T04:24:28;2.72;;;2.17;;
65187;SDS011;51775;51.148;6.950;2023-06-24T04:26:53;2.90;;;2.22;;
65187;SDS011;51775;51.148;6.950;2023-06-24T04:29:18;3.60;;;2.20;;
65187;SDS011;51775;51.148;6.950;2023-06-24T04:31:44;2.60;;;1.95;;
65187;SDS011;51775;51.148;6.950;2023-06-24T04:34:09;2.90;;;2.07;;
65187;SDS011;51775;51.148;6.950;2023-06-24T04:36:34;2.95;;;2.22;;
65187;SDS011;51775;51.148;6.950;2023-06-24T04:38:59;3.08;;;2.13;;
65187;SDS011;51775;51.148;6.950;2023-06-24T04:41:25;2.80;;;2.05;;
65187;SDS011;51775;51.148;6.950;2023-06-24T04:43:50;2.75;;;2.10;;
65187;SDS011;51775;51.148;6.950;2023-06-24T04:46:15;2.72;;;2.10;;
65187;SDS011;51775;51.148;6.950;2023-06-24T04:48:40;2.85;;;2.20;;
65187;SDS011;51775;51.148;6.950;2023-06-24T04:51:06;2.83;;;1.83;;
65187;SDS011;51775;51.148;6.950;2023-06-24T04:53:31;3.00;;;2.30;;
65187;SDS011;51775;51.148;6.950;2023-06-24T04:55:57;2.88;;;2.00;;
65187;SDS011;51775;51.148;6.950;2023-06-24T04:58:23;2.80;;;2.20;;
65187;SDS011;51775;51.148;6.950;2023-06-24T05:00:48;3.70;;;2.08;;
65187;SDS011;51775;51.148;6.950;2023-06-24T05:03:14;2.85;;;2.05;;
65187;SDS011;51775;51.148;6.950;2023-06-24T05:05:39;2.78;;;2.10;;
65187;SDS011;51775;51.148;6.950;2023-06-24T05:08:04;2.78;;;2.00;;
65187;SDS011;51775;51.148;6.950;2023-06-24T05:10:30;2.80;;;2.15;;
65187;SDS011;51775;51.148;6.950;2023-06-24T05:12:55;3.20;;;2.50;;
65187;SDS011;51775;51.148;6.950;2023-06-24T05:15:20;2.65;;;2.03;;
65187;SDS011;51775;51.148;6.950;2023-06-24T05:17:46;2.80;;;2.13;;
65187;SDS011;51775;51.148;6.950;2023-06-24T05:20:11;3.10;;;2.30;;
65187;SDS011;51775;51.148;6.950;2023-06-24T05:22:36;3.03;;;2.20;;
65187;SDS011;51775;51.148;6.950;2023-06-24T05:25:02;2.95;;;2.30;;
65187;SDS011;51775;51.148;6.950;2023-06-24T05:27:27;2.97;;;2.20;;
65187;SDS011;51775;51.148;6.950;2023-06-24T05:29:52;3.08;;;2.20;;
65187;SDS011;51775;51.148;6.950;2023-06-24T05:32:18;3.10;;;2.30;;
65187;SDS011;51775;51.148;6.950;2023-06-24T05:34:43;3.33;;;2.30;;
65187;SDS011;51775;51.148;6.950;2023-06-24T05:37:08;2.78;;;2.20;;
65187;SDS011;51775;51.148;6.950;2023-06-24T05:39:34;2.85;;;2.30;;
65187;SDS011;51775;51.148;6.950;2023-06-24T05:41:59;3.17;;;2.30;;
65187;SDS011;51775;51.148;6.950;2023-06-24T05:44:24;2.60;;;2.10;;
65187;SDS011;51775;51.148;6.950;2023-06-24T05:46:50;3.35;;;2.25;;
65187;SDS011;51775;51.148;6.950;2023-06-24T05:49:15;2.92;;;2.22;;
65187;SDS011;51775;51.148;6.950;2023-06-24T05:51:40;3.50;;;2.35;;
65187;SDS011;51775;51.148;6.950;2023-06-24T05:54:06;2.92;;;2.22;;
65187;SDS011;51775;51.148;6.950;2023-06-24T05:56:32;3.65;;;2.40;;
65187;SDS011;51775;51.148;6.950;2023-06-24T05:58:57;2.92;;;2.25;;
65187;SDS011;51775;51.148;6.950;2023-06-24T06:01:22;2.88;;;2.35;;
65187;SDS011;51775;51.148;6.950;2023-06-24T06:03:48;3.03;;;2.30;;
65187;SDS011;51775;51.148;6.950;2023-06-24T06:06:13;3.00;;;2.30;;
65187;SDS011;51775;51.148;6.950;2023-06-24T06:08:38;3.40;;;2.50;;
65187;SDS011;51775;51.148;6.950;2023-06-24T06:11:04;3.35;;;2.45;;
65187;SDS011;51775;51.148;6.950;2023-06-24T06:13:29;3.10;;;2.30;;
65187;SDS011;51775;51.148;6.950;2023-06-24T06:15:58;2.90;;;2.20;;
65187;SDS011;51775;51.148;6.950;2023-06-24T06:18:24;3.53;;;2.42;;
65187;SDS011;51775;51.148;6.950;2023-06-24T06:20:49;3.70;;;2.58;;
65187;SDS011;51775;51.148;6.950;2023-06-24T06:23:15;2.95;;;2.30;;
65187;SDS011;51775;51.148;6.950;2023-06-24T06:25:40;2.90;;;2.40;;
65187;SDS011;51775;51.148;6.950;2023-06-24T06:28:06;3.28;;;2.53;;
65187;SDS011;51775;51.148;6.950;2023-06-24T06:30:31;2.85;;;2.38;;
65187;SDS011;51775;51.148;6.950;2023-06-24T06:32:57;3.55;;;2.50;;
65187;SDS011;51775;51.148;6.950;2023-06-24T06:35:22;3.10;;;2.55;;
65187;SDS011;51775;51.148;6.950;2023-06-24T06:37:47;3.30;;;2.38;;
65187;SDS011;51775;51.148;6.950;2023-06-24T06:40:13;2.80;;;2.25;;
65187;SDS011;51775;51.148;6.950;2023-06-24T06:42:38;5.05;;;2.80;;
65187;SDS011;51775;51.148;6.950;2023-06-24T06:45:03;3.53;;;2.63;;
65187;SDS011;51775;51.148;6.950;2023-06-24T06:47:29;3.67;;;2.63;;
65187;SDS011;51775;51.148;6.950;2023-06-24T06:49:54;3.55;;;2.92;;
65187;SDS011;51775;51.148;6.950;2023-06-24T06:52:20;3.30;;;2.80;;
65187;SDS011;51775;51.148;6.950;2023-06-24T06:54:45;3.70;;;2.60;;
65187;SDS011;51775;51.148;6.950;2023-06-24T06:57:10;3.75;;;3.00;;
65187;SDS011;51775;51.148;6.950;2023-06-24T06:59:36;3.45;;;2.70;;
65187;SDS011;51775;51.148;6.950;2023-06-24T07:02:01;3.53;;;2.78;;
65187;SDS011;51775;51.148;6.950;2023-06-24T07:04:27;4.70;;;3.00;;
65187;SDS011;51775;51.148;6.950;2023-06-24T07:06:52;3.30;;;2.42;;
65187;SDS011;51775;51.148;6.950;2023-06-24T07:09:17;3.80;;;2.90;;
65187;SDS011;51775;51.148;6.950;2023-06-24T07:11:44;3.72;;;2.90;;
65187;SDS011;51775;51.148;6.950;2023-06-24T07:14:10;3.70;;;2.85;;
65187;SDS011;51775;51.148;6.950;2023-06-24T07:16:35;3.97;;;3.10;;
65187;SDS011;51775;51.148;6.950;2023-06-24T07:19:00;5.65;;;2.80;;
65187;SDS011;51775;51.148;6.950;2023-06-24T07:21:26;3.70;;;2.95;;
65187;SDS011;51775;51.148;6.950;2023-06-24T07:23:51;3.67;;;2.65;;
65187;SDS011;51775;51.148;6.950;2023-06-24T07:26:16;3.42;;;2.80;;
65187;SDS011;51775;51.148;6.950;2023-06-24T07:28:46;3.83;;;2.90;;
65187;SDS011;51775;51.148;6.950;2023-06-24T07:31:11;5.47;;;2.80;;
65187;SDS011;51775;51.148;6.950;2023-06-24T07:33:37;3.67;;;2.90;;
65187;SDS011;51775;51.148;6.950;2023-06-24T07:36:02;3.55;;;2.58;;
65187;SDS011;51775;51.148;6.950;2023-06-24T07:38:28;4.05;;;2.90;;
65187;SDS011;51775;51.148;6.950;2023-06-24T07:40:54;3.22;;;2.78;;
65187;SDS011;51775;51.148;6.950;2023-06-24T07:43:19;3.80;;;2.90;;
65187;SDS011;51775;51.148;6.950;2023-06-24T07:45:44;4.03;;;2.80;;
65187;SDS011;51775;51.148;6.950;2023-06-24T07:48:10;3.70;;;2.80;;
65187;SDS011;51775;51.148;6.950;2023-06-24T07:50:35;4.53;;;2.42;;
65187;SDS011;51775;51.148;6.950;2023-06-24T07:53:00;3.42;;;2.53;;
65187;SDS011;51775;51.148;6.950;2023-06-24T07:55:26;3.90;;;3.00;;
65187;SDS011;51775;51.148;6.950;2023-06-24T07:57:51;3.57;;;2.70;;
65187;SDS011;51775;51.148;6.950;2023-06-24T08:00:16;3.78;;;2.72;;
65187;SDS011;51775;51.148;6.950;2023-06-24T08:02:42;3.55;;;2.65;;
65187;SDS011;51775;51.148;6.950;2023-06-24T08:05:08;3.47;;;2.65;;
65187;SDS011;51775;51.148;6.950;2023-06-24T08:07:34;3.08;;;2.35;;
65187;SDS011;51775;51.148;6.950;2023-06-24T08:09:59;3.08;;;2.40;;
65187;SDS011;51775;51.148;6.950;2023-06-24T08:12:26;3.78;;;2.60;;
65187;SDS011;51775;51.148;6.950;2023-06-24T08:14:51;3.47;;;2.70;;
65187;SDS011;51775;51.148;6.950;2023-06-24T08:17:16;6.88;;;2.90;;
65187;SDS011;51775;51.148;6.950;2023-06-24T08:19:42;3.45;;;2.78;;
65187;SDS011;51775;51.148;6.950;2023-06-24T08:22:07;4.20;;;2.88;;
65187;SDS011;51775;51.148;6.950;2023-06-24T08:24:32;4.18;;;2.95;;
65187;SDS011;51775;51.148;6.950;2023-06-24T08:26:57;3.35;;;2.60;;
65187;SDS011;51775;51.148;6.950;2023-06-24T08:29:41;3.40;;;2.70;;
65187;SDS011;51775;51.148;6.950;2023-06-24T08:32:07;4.40;;;2.58;;
65187;SDS011;51775;51.148;6.950;2023-06-24T08:34:32;3.90;;;2.72;;
65187;SDS011;51775;51.148;6.950;2023-06-24T08:36:59;4.38;;;2.92;;
65187;SDS011;51775;51.148;6.950;2023-06-24T08:39:24;3.25;;;2.63;;
65187;SDS011;51775;51.148;6.950;2023-06-24T08:41:50;4.55;;;2.60;;
65187;SDS011;51775;51.148;6.950;2023-06-24T08:44:16;3.30;;;2.42;;
65187;SDS011;51775;51.148;6.950;2023-06-24T08:46:41;4.38;;;2.95;;
65187;SDS011;51775;51.148;6.950;2023-06-24T08:51:54;3.53;;;2.40;;
65187;SDS011;51775;51.148;6.950;2023-06-24T08:54:52;3.95;;;2.60;;
65187;SDS011;51775;51.148;6.950;2023-06-24T08:57:20;4.55;;;2.70;;
65187;SDS011;51775;51.148;6.950;2023-06-24T08:59:46;4.35;;;2.90;;
65187;SDS011;51775;51.148;6.950;2023-06-24T09:02:11;3.45;;;2.50;;
65187;SDS011;51775;51.148;6.950;2023-06-24T09:04:37;4.28;;;2.40;;
65187;SDS011;51775;51.148;6.950;2023-06-24T09:07:02;3.67;;;2.50;;
65187;SDS011;51775;51.148;6.950;2023-06-24T09:09:28;3.97;;;2.60;;
65187;SDS011;51775;51.148;6.950;2023-06-24T09:14:25;3.90;;;2.50;;
65187;SDS011;51775;51.148;6.950;2023-06-24T09:16:58;6.20;;;3.03;;
65187;SDS011;51775;51.148;6.950;2023-06-24T09:19:25;3.72;;;2.63;;
65187;SDS011;51775;51.148;6.950;2023-06-24T09:21:51;4.32;;;2.80;;
65187;SDS011;51775;51.148;6.950;2023-06-24T09:24:16;4.97;;;2.70;;
65187;SDS011;51775;51.148;6.950;2023-06-24T09:26:42;4.53;;;2.72;;
65187;SDS011;51775;51.148;6.950;2023-06-24T09:29:08;6.30;;;2.67;;
65187;SDS011;51775;51.148;6.950;2023-06-24T09:31:33;4.93;;;2.88;;
65187;SDS011;51775;51.148;6.950;2023-06-24T09:33:59;4.25;;;2.70;;
65187;SDS011;51775;51.148;6.950;2023-06-24T09:36:24;6.72;;;2.42;;
65187;SDS011;51775;51.148;6.950;2023-06-24T09:38:50;3.50;;;2.60;;
65187;SDS011;51775;51.148;6.950;2023-06-24T09:41:15;3.88;;;2.45;;
65187;SDS011;51775;51.148;6.950;2023-06-24T09:43:41;4.90;;;2.75;;
65187;SDS011;51775;51.148;6.950;2023-06-24T09:46:07;4.13;;;2.50;;
65187;SDS011;51775;51.148;6.950;2023-06-24T09:48:33;3.05;;;2.40;;
65187;SDS011;51775;51.148;6.950;2023-06-24T09:50:59;4.90;;;2.38;;
65187;SDS011;51775;51.148;6.950;2023-06-24T09:53:26;5.93;;;2.70;;
65187;SDS011;51775;51.148;6.950;2023-06-24T09:55:55;5.65;;;2.65;;
65187;SDS011;51775;51.148;6.950;2023-06-24T09:58:20;4.38;;;2.63;;
65187;SDS011;51775;51.148;6.950;2023-06-24T10:00:46;6.57;;;2.67;;
65187;SDS011;51775;51.148;6.950;2023-06-24T10:03:12;5.60;;;2.80;;
65187;SDS011;51775;51.148;6.950;2023-06-24T10:05:37;5.47;;;2.60;;
65187;SDS011;51775;51.148;6.950;2023-06-24T10:08:04;3.95;;;2.53;;
65187;SDS011;51775;51.148;6.950;2023-06-24T10:10:30;4.90;;;2.85;;
65187;SDS011;51775;51.148;6.950;2023-06-24T10:12:55;4.20;;;2.60;;
65187;SDS011;51775;51.148;6.950;2023-06-24T10:15:21;4.35;;;2.50;;
65187;SDS011;51775;51.148;6.950;2023-06-24T10:17:46;3.30;;;2.33;;
65187;SDS011;51775;51.148;6.950;2023-06-24T10:20:12;3.95;;;2.80;;
65187;SDS011;51775;51.148;6.950;2023-06-24T10:22:38;4.88;;;2.78;;
65187;SDS011;51775;51.148;6.950;2023-06-24T10:25:05;3.80;;;2.58;;
65187;SDS011;51775;51.148;6.950;2023-06-24T10:27:31;6.93;;;2.70;;
65187;SDS011;51775;51.148;6.950;2023-06-24T10:30:04;4.20;;;2.60;;
65187;SDS011;51775;51.148;6.950;2023-06-24T10:32:40;4.68;;;2.60;;
65187;SDS011;51775;51.148;6.950;2023-06-24T10:35:06;6.93;;;2.65;;
65187;SDS011;51775;51.148;6.950;2023-06-24T10:37:32;6.35;;;2.97;;
65187;SDS011;51775;51.148;6.950;2023-06-24T10:40:01;5.10;;;2.50;;
65187;SDS011;51775;51.148;6.950;2023-06-24T10:42:40;4.93;;;2.85;;
65187;SDS011;51775;51.148;6.950;2023-06-24T10:47:33;4.27;;;2.80;;
65187;SDS011;51775;51.148;6.950;2023-06-24T10:49:59;4.97;;;2.90;;
65187;SDS011;51775;51.148;6.950;2023-06-24T10:52:24;4.72;;;2.70;;
65187;SDS011;51775;51.148;6.950;2023-06-24T10:54:50;4.18;;;2.80;;
65187;SDS011;51775;51.148;6.950;2023-06-24T10:57:20;3.80;;;2.63;;
65187;SDS011;51775;51.148;6.950;2023-06-24T10:59:50;4.68;;;2.88;;
65187;SDS011;51775;51.148;6.950;2023-06-24T11:02:17;9.80;;;2.75;;
65187;SDS011;51775;51.148;6.950;2023-06-24T11:04:47;7.05;;;2.88;;
65187;SDS011;51775;51.148;6.950;2023-06-24T11:07:14;4.28;;;2.60;;
65187;SDS011;51775;51.148;6.950;2023-06-24T11:09:41;6.40;;;2.67;;
65187;SDS011;51775;51.148;6.950;2023-06-24T11:12:08;4.05;;;2.78;;
65187;SDS011;51775;51.148;6.950;2023-06-24T11:14:34;4.20;;;2.75;;
65187;SDS011;51775;51.148;6.950;2023-06-24T11:17:00;5.80;;;2.70;;
65187;SDS011;51775;51.148;6.950;2023-06-24T11:19:26;4.95;;;2.60;;
65187;SDS011;51775;51.148;6.950;2023-06-24T11:21:52;5.03;;;2.50;;
65187;SDS011;51775;51.148;6.950;2023-06-24T11:24:17;4.00;;;2.58;;
65187;SDS011;51775;51.148;6.950;2023-06-24T11:26:42;6.50;;;2.88;;
65187;SDS011;51775;51.148;6.950;2023-06-24T11:29:11;5.93;;;2.72;;
65187;SDS011;51775;51.148;6.950;2023-06-24T11:31:36;4.72;;;2.42;;
65187;SDS011;51775;51.148;6.950;2023-06-24T11:34:02;8.93;;;2.80;;
65187;SDS011;51775;51.148;6.950;2023-06-24T11:36:27;3.58;;;2.53;;
65187;SDS011;51775;51.148;6.950;2023-06-24T11:38:52;5.20;;;2.55;;
65187;SDS011;51775;51.148;6.950;2023-06-24T11:41:20;6.13;;;2.58;;
65187;SDS011;51775;51.148;6.950;2023-06-24T11:43:46;4.20;;;2.50;;
65187;SDS011;51775;51.148;6.950;2023-06-24T11:46:24;6.57;;;2.72;;
65187;SDS011;51775;51.148;6.950;2023-06-24T11:48:50;4.25;;;2.45;;
65187;SDS011;51775;51.148;6.950;2023-06-24T11:51:16;5.15;;;2.70;;
65187;SDS011;51775;51.148;6.950;2023-06-24T11:53:42;3.60;;;2.50;;
65187;SDS011;51775;51.148;6.950;2023-06-24T11:56:08;3.65;;;2.45;;
65187;SDS011;51775;51.148;6.950;2023-06-24T11:58:34;3.78;;;2.50;;
65187;SDS011;51775;51.148;6.950;2023-06-24T12:01:00;3.63;;;2.40;;
65187;SDS011;51775;51.148;6.950;2023-06-24T12:03:25;7.03;;;2.67;;
65187;SDS011;51775;51.148;6.950;2023-06-24T12:05:53;3.97;;;2.78;;
65187;SDS011;51775;51.148;6.950;2023-06-24T12:08:19;4.55;;;2.60;;
65187;SDS011;51775;51.148;6.950;2023-06-24T12:10:44;4.18;;;2.45;;
65187;SDS011;51775;51.148;6.950;2023-06-24T12:13:10;5.00;;;2.70;;
65187;SDS011;51775;51.148;6.950;2023-06-24T12:15:35;3.65;;;2.45;;
65187;SDS011;51775;51.148;6.950;2023-06-24T12:18:01;4.45;;;2.70;;
65187;SDS011;51775;51.148;6.950;2023-06-24T12:20:26;5.43;;;2.50;;
65187;SDS011;51775;51.148;6.950;2023-06-24T12:22:53;4.15;;;2.30;;
65187;SDS011;51775;51.148;6.950;2023-06-24T12:25:19;5.90;;;2.60;;
65187;SDS011;51775;51.148;6.950;2023-06-24T12:27:44;4.70;;;2.45;;
65187;SDS011;51775;51.148;6.950;2023-06-24T12:30:11;5.38;;;2.20;;
65187;SDS011;51775;51.148;6.950;2023-06-24T12:32:37;5.05;;;2.67;;
65187;SDS011;51775;51.148;6.950;2023-06-24T12:35:03;5.47;;;2.35;;
65187;SDS011;51775;51.148;6.950;2023-06-24T12:37:32;7.15;;;2.80;;
65187;SDS011;51775;51.148;6.950;2023-06-24T12:39:58;4.38;;;2.30;;
65187;SDS011;51775;51.148;6.950;2023-06-24T12:42:27;3.60;;;2.33;;
65187;SDS011;51775;51.148;6.950;2023-06-24T12:44:53;3.60;;;2.70;;
65187;SDS011;51775;51.148;6.950;2023-06-24T12:47:20;4.38;;;2.55;;
65187;SDS011;51775;51.148;6.950;2023-06-24T12:49:45;4.60;;;2.55;;
65187;SDS011;51775;51.148;6.950;2023-06-24T12:52:12;6.03;;;2.45;;
65187;SDS011;51775;51.148;6.950;2023-06-24T12:54:37;4.93;;;2.78;;
65187;SDS011;51775;51.148;6.950;2023-06-24T12:57:03;4.15;;;2.50;;
65187;SDS011;51775;51.148;6.950;2023-06-24T12:59:28;3.70;;;2.55;;
65187;SDS011;51775;51.148;6.950;2023-06-24T13:01:54;4.75;;;2.42;;
65187;SDS011;51775;51.148;6.950;2023-06-24T13:04:19;5.88;;;2.25;;
65187;SDS011;51775;51.148;6.950;2023-06-24T13:06:44;4.10;;;2.60;;
65187;SDS011;51775;51.148;6.950;2023-06-24T13:09:09;4.70;;;2.22;;
65187;SDS011;51775;51.148;6.950;2023-06-24T13:11:35;4.82;;;2.60;;
65187;SDS011;51775;51.148;6.950;2023-06-24T13:14:00;4.25;;;2.38;;
65187;SDS011;51775;51.148;6.950;2023-06-24T13:16:25;4.25;;;2.67;;
65187;SDS011;51775;51.148;6.950;2023-06-24T13:18:50;4.80;;;2.33;;
65187;SDS011;51775;51.148;6.950;2023-06-24T13:21:16;5.53;;;2.40;;
65187;SDS011;51775;51.148;6.950;2023-06-24T13:23:41;3.70;;;2.33;;
65187;SDS011;51775;51.148;6.950;2023-06-24T13:26:06;3.55;;;2.20;;
65187;SDS011;51775;51.148;6.950;2023-06-24T13:28:32;3.92;;;2.40;;
65187;SDS011;51775;51.148;6.950;2023-06-24T13:30:57;6.40;;;2.65;;
65187;SDS011;51775;51.148;6.950;2023-06-24T13:33:23;6.97;;;2.50;;
65187;SDS011;51775;51.148;6.950;2023-06-24T13:35:48;6.00;;;2.75;;
65187;SDS011;51775;51.148;6.950;2023-06-24T13:38:13;6.88;;;2.47;;
65187;SDS011;51775;51.148;6.950;2023-06-24T13:40:39;7.37;;;2.37;;
65187;SDS011;51775;51.148;6.950;2023-06-24T13:43:04;6.40;;;2.55;;
65187;SDS011;51775;51.148;6.950;2023-06-24T13:45:29;7.47;;;2.60;;
65187;SDS011;51775;51.148;6.950;2023-06-24T13:47:55;5.20;;;2.50;;
65187;SDS011;51775;51.148;6.950;2023-06-24T13:50:20;5.00;;;2.30;;
65187;SDS011;51775;51.148;6.950;2023-06-24T13:52:45;5.60;;;2.70;;
65187;SDS011;51775;51.148;6.950;2023-06-24T13:55:11;6.30;;;2.60;;
65187;SDS011;51775;51.148;6.950;2023-06-24T13:57:39;8.10;;;2.60;;
65187;SDS011;51775;51.148;6.950;2023-06-24T14:00:05;5.15;;;2.60;;
65187;SDS011;51775;51.148;6.950;2023-06-24T14:02:31;5.18;;;2.60;;
65187;SDS011;51775;51.148;6.950;2023-06-24T14:04:56;5.53;;;2.47;;
65187;SDS011;51775;51.148;6.950;2023-06-24T14:07:22;5.18;;;2.40;;
65187;SDS011;51775;51.148;6.950;2023-06-24T14:09:48;4.68;;;2.30;;
65187;SDS011;51775;51.148;6.950;2023-06-24T14:12:14;5.07;;;2.50;;
65187;SDS011;51775;51.148;6.950;2023-06-24T14:14:39;4.43;;;2.42;;
65187;SDS011;51775;51.148;6.950;2023-06-24T14:17:06;4.57;;;2.33;;
65187;SDS011;51775;51.148;6.950;2023-06-24T14:19:32;5.18;;;2.53;;
65187;SDS011;51775;51.148;6.950;2023-06-24T14:21:57;5.80;;;2.93;;
65187;SDS011;51775;51.148;6.950;2023-06-24T14:24:22;6.93;;;2.53;;
65187;SDS011;51775;51.148;6.950;2023-06-24T14:26:51;5.75;;;2.40;;
65187;SDS011;51775;51.148;6.950;2023-06-24T14:29:17;5.80;;;2.55;;
65187;SDS011;51775;51.148;6.950;2023-06-24T14:31:42;3.90;;;2.20;;
65187;SDS011;51775;51.148;6.950;2023-06-24T14:34:08;5.38;;;2.17;;
65187;SDS011;51775;51.148;6.950;2023-06-24T14:36:33;4.72;;;2.30;;
65187;SDS011;51775;51.148;6.950;2023-06-24T14:38:58;4.90;;;2.60;;
65187;SDS011;51775;51.148;6.950;2023-06-24T14:41:24;4.32;;;2.50;;
65187;SDS011;51775;51.148;6.950;2023-06-24T14:43:50;5.57;;;2.60;;
65187;SDS011;51775;51.148;6.950;2023-06-24T14:46:15;3.75;;;2.15;;
65187;SDS011;51775;51.148;6.950;2023-06-24T14:48:40;4.57;;;2.40;;
65187;SDS011;51775;51.148;6.950;2023-06-24T14:51:06;4.72;;;2.42;;
65187;SDS011;51775;51.148;6.950;2023-06-24T14:53:31;3.42;;;2.25;;
65187;SDS011;51775;51.148;6.950;2023-06-24T14:55:56;4.60;;;2.42;;
65187;SDS011;51775;51.148;6.950;2023-06-24T14:58:21;4.57;;;2.28;;
65187;SDS011;51775;51.148;6.950;2023-06-24T15:00:47;4.70;;;2.30;;